sensor_id;sensor_type;location;lat;lon;timestamp;pressure;altitude;pressure_sealevel;temperature;humidity
55315;BME280;41619;42.816;23.226;2022-09-09T00:04:00;95717.38;;;15.38;71.44
55315;BME280;41619;42.816;23.226;2022-09-09T00:06:42;95716.97;;;15.36;71.25
55315;BME280;41619;42.816;23.226;2022-09-09T00:09:15;95722.47;;;15.32;71.51
55315;BME280;41619;42.816;23.226;2022-09-09T00:11:46;95720.91;;;15.31;71.37
55315;BME280;41619;42.816;23.226;2022-09-09T00:16:50;95712.63;;;15.28;71.73
55315;BME280;41619;42.816;23.226;2022-09-09T00:22:04;95696.88;;;15.25;71.65
55315;BME280;41619;42.816;23.226;2022-09-09T00:29:43;95686.59;;;15.14;71.49
55315;BME280;41619;42.816;23.226;2022-09-09T00:32:18;95689.72;;;15.13;71.37
55315;BME280;41619;42.816;23.226;2022-09-09T00:37:35;95679.06;;;15.04;71.63
55315;BME280;41619;42.816;23.226;2022-09-09T00:40:08;95684.56;;;15.01;71.49
55315;BME280;41619;42.816;23.226;2022-09-09T00:42:43;95686.13;;;14.95;71.54
55315;BME280;41619;42.816;23.226;2022-09-09T00:47:53;95689.66;;;14.88;72.00
55315;BME280;41619;42.816;23.226;2022-09-09T00:56:27;95690.38;;;14.78;72.25
55315;BME280;41619;42.816;23.226;2022-09-09T01:02:19;95688.41;;;14.75;72.47
55315;BME280;41619;42.816;23.226;2022-09-09T01:04:47;95686.03;;;14.73;72.50
55315;BME280;41619;42.816;23.226;2022-09-09T01:07:18;95684.44;;;14.72;72.78
55315;BME280;41619;42.816;23.226;2022-09-09T01:09:58;95679.72;;;14.73;72.60
55315;BME280;41619;42.816;23.226;2022-09-09T01:15:01;95694.63;;;14.68;72.66
55315;BME280;41619;42.816;23.226;2022-09-09T01:17:31;95686.34;;;14.61;72.47
55315;BME280;41619;42.816;23.226;2022-09-09T01:28:35;95697.22;;;14.40;72.80
55315;BME280;41619;42.816;23.226;2022-09-09T01:31:03;95710.56;;;14.38;72.93
55315;BME280;41619;42.816;23.226;2022-09-09T01:33:29;95706.25;;;14.37;72.96
55315;BME280;41619;42.816;23.226;2022-09-09T01:38:27;95713.31;;;14.34;73.26
55315;BME280;41619;42.816;23.226;2022-09-09T01:40:54;95715.66;;;14.32;72.97
55315;BME280;41619;42.816;23.226;2022-09-09T01:43:23;95710.50;;;14.31;73.24
55315;BME280;41619;42.816;23.226;2022-09-09T01:45:53;95709.69;;;14.27;73.40
55315;BME280;41619;42.816;23.226;2022-09-09T01:48:21;95704.97;;;14.23;73.25
55315;BME280;41619;42.816;23.226;2022-09-09T01:50:47;95712.00;;;14.17;73.16
55315;BME280;41619;42.816;23.226;2022-09-09T01:53:14;95707.63;;;14.13;73.42
55315;BME280;41619;42.816;23.226;2022-09-09T01:55:42;95706.44;;;14.10;73.65
55315;BME280;41619;42.816;23.226;2022-09-09T02:03:31;95693.44;;;14.07;73.84
55315;BME280;41619;42.816;23.226;2022-09-09T02:06:40;95698.56;;;14.09;73.79
55315;BME280;41619;42.816;23.226;2022-09-09T02:08:49;95691.09;;;14.09;73.84
55315;BME280;41619;42.816;23.226;2022-09-09T02:11:17;95689.91;;;14.07;73.80
55315;BME280;41619;42.816;23.226;2022-09-09T02:13:45;95684.00;;;14.05;73.49
55315;BME280;41619;42.816;23.226;2022-09-09T02:16:28;95686.34;;;14.03;73.61
55315;BME280;41619;42.816;23.226;2022-09-09T02:19:42;95687.88;;;14.00;73.88
55315;BME280;41619;42.816;23.226;2022-09-09T02:21:43;95690.66;;;14.00;74.06
55315;BME280;41619;42.816;23.226;2022-09-09T02:24:13;95695.34;;;14.00;74.09
55315;BME280;41619;42.816;23.226;2022-09-09T02:26:41;95707.50;;;13.95;73.76
55315;BME280;41619;42.816;23.226;2022-09-09T02:29:13;95702.38;;;13.93;73.72
55315;BME280;41619;42.816;23.226;2022-09-09T02:31:41;95707.88;;;13.93;73.83
55315;BME280;41619;42.816;23.226;2022-09-09T02:34:10;95713.75;;;13.92;74.21
55315;BME280;41619;42.816;23.226;2022-09-09T02:36:38;95712.16;;;13.91;74.40
55315;BME280;41619;42.816;23.226;2022-09-09T02:39:07;95714.50;;;13.89;74.32
55315;BME280;41619;42.816;23.226;2022-09-09T02:41:35;95717.25;;;13.85;74.44
55315;BME280;41619;42.816;23.226;2022-09-09T02:44:01;95714.50;;;13.85;74.70
55315;BME280;41619;42.816;23.226;2022-09-09T02:46:34;95705.03;;;13.83;74.10
55315;BME280;41619;42.816;23.226;2022-09-09T02:49:06;95712.09;;;13.80;74.21
55315;BME280;41619;42.816;23.226;2022-09-09T02:54:34;95708.47;;;13.73;74.43
55315;BME280;41619;42.816;23.226;2022-09-09T02:57:11;95709.63;;;13.68;74.13
55315;BME280;41619;42.816;23.226;2022-09-09T02:59:38;95700.16;;;13.66;74.37
55315;BME280;41619;42.816;23.226;2022-09-09T03:02:03;95703.69;;;13.62;74.29
55315;BME280;41619;42.816;23.226;2022-09-09T03:04:29;95698.56;;;13.61;74.70
55315;BME280;41619;42.816;23.226;2022-09-09T03:06:57;95708.78;;;13.60;74.82
55315;BME280;41619;42.816;23.226;2022-09-09T03:09:22;95712.28;;;13.57;74.74
55315;BME280;41619;42.816;23.226;2022-09-09T03:11:47;95715.38;;;13.56;74.85
55315;BME280;41619;42.816;23.226;2022-09-09T03:14:14;95705.56;;;13.55;74.36
55315;BME280;41619;42.816;23.226;2022-09-09T03:16:40;95707.09;;;13.52;75.08
55315;BME280;41619;42.816;23.226;2022-09-09T03:19:08;95698.84;;;13.52;74.76
55315;BME280;41619;42.816;23.226;2022-09-09T03:21:34;95700.44;;;13.53;74.89
55315;BME280;41619;42.816;23.226;2022-09-09T03:24:01;95704.34;;;13.52;74.88
55315;BME280;41619;42.816;23.226;2022-09-09T03:26:28;95705.53;;;13.51;75.51
55315;BME280;41619;42.816;23.226;2022-09-09T03:28:55;95703.56;;;13.52;75.21
55315;BME280;41619;42.816;23.226;2022-09-09T03:31:20;95702.38;;;13.53;75.25
55315;BME280;41619;42.816;23.226;2022-09-09T03:33:46;95704.75;;;13.54;75.20
55315;BME280;41619;42.816;23.226;2022-09-09T03:36:11;95705.56;;;13.55;74.98
55315;BME280;41619;42.816;23.226;2022-09-09T03:38:37;95695.34;;;13.55;75.00
55315;BME280;41619;42.816;23.226;2022-09-09T03:41:02;95705.56;;;13.55;74.80
55315;BME280;41619;42.816;23.226;2022-09-09T03:43:31;95703.59;;;13.55;74.93
55315;BME280;41619;42.816;23.226;2022-09-09T03:45:57;95703.56;;;13.52;74.86
55315;BME280;41619;42.816;23.226;2022-09-09T03:48:23;95708.66;;;13.50;75.09
55315;BME280;41619;42.816;23.226;2022-09-09T03:50:53;95703.16;;;13.50;75.29
55315;BME280;41619;42.816;23.226;2022-09-09T03:53:21;95696.06;;;13.49;75.24
55315;BME280;41619;42.816;23.226;2022-09-09T03:55:49;95713.75;;;13.48;74.96
55315;BME280;41619;42.816;23.226;2022-09-09T03:58:18;95716.88;;;13.46;75.57
55315;BME280;41619;42.816;23.226;2022-09-09T04:00:53;95712.94;;;13.47;75.02
55315;BME280;41619;42.816;23.226;2022-09-09T04:03:19;95716.50;;;13.48;75.24
55315;BME280;41619;42.816;23.226;2022-09-09T04:05:44;95711.78;;;13.48;75.44
55315;BME280;41619;42.816;23.226;2022-09-09T04:08:10;95703.13;;;13.46;75.12
55315;BME280;41619;42.816;23.226;2022-09-09T04:10:36;95700.38;;;13.46;75.17
55315;BME280;41619;42.816;23.226;2022-09-09T04:13:03;95691.38;;;13.49;75.05
55315;BME280;41619;42.816;23.226;2022-09-09T04:15:29;95705.13;;;13.49;75.40
55315;BME280;41619;42.816;23.226;2022-09-09T04:17:55;95720.81;;;13.49;75.12
55315;BME280;41619;42.816;23.226;2022-09-09T04:20:20;95720.03;;;13.48;74.61
55315;BME280;41619;42.816;23.226;2022-09-09T04:22:47;95715.31;;;13.49;75.38
55315;BME280;41619;42.816;23.226;2022-09-09T04:25:12;95718.06;;;13.49;75.34
55315;BME280;41619;42.816;23.226;2022-09-09T04:27:38;95717.69;;;13.50;75.03
55315;BME280;41619;42.816;23.226;2022-09-09T04:30:03;95717.69;;;13.50;75.10
55315;BME280;41619;42.816;23.226;2022-09-09T04:32:29;95712.19;;;13.50;75.32
55315;BME280;41619;42.816;23.226;2022-09-09T04:34:55;95711.81;;;13.52;75.28
55315;BME280;41619;42.816;23.226;2022-09-09T04:37:20;95708.31;;;13.55;75.33
55315;BME280;41619;42.816;23.226;2022-09-09T04:39:45;95717.41;;;13.59;75.11
55315;BME280;41619;42.816;23.226;2022-09-09T04:42:11;95724.09;;;13.61;75.19
55315;BME280;41619;42.816;23.226;2022-09-09T04:44:36;95715.50;;;13.67;75.40
55315;BME280;41619;42.816;23.226;2022-09-09T04:47:02;95706.91;;;13.72;75.41
55315;BME280;41619;42.816;23.226;2022-09-09T04:49:27;95701.84;;;13.77;75.27
55315;BME280;41619;42.816;23.226;2022-09-09T04:51:52;95713.28;;;13.83;74.93
55315;BME280;41619;42.816;23.226;2022-09-09T04:54:18;95711.75;;;13.89;74.87
55315;BME280;41619;42.816;23.226;2022-09-09T04:56:44;95719.66;;;13.94;75.25
55315;BME280;41619;42.816;23.226;2022-09-09T04:59:09;95724.84;;;13.99;75.23
55315;BME280;41619;42.816;23.226;2022-09-09T05:01:35;95711.88;;;14.03;75.10
55315;BME280;41619;42.816;23.226;2022-09-09T05:04:02;95704.06;;;14.09;75.13
55315;BME280;41619;42.816;23.226;2022-09-09T05:06:28;95702.16;;;14.16;74.86
55315;BME280;41619;42.816;23.226;2022-09-09T05:08:56;95708.88;;;14.22;74.87
55315;BME280;41619;42.816;23.226;2022-09-09T05:11:28;95714.81;;;14.28;74.83
55315;BME280;41619;42.816;23.226;2022-09-09T05:13:54;95723.56;;;14.37;74.53
55315;BME280;41619;42.816;23.226;2022-09-09T05:16:20;95709.84;;;14.44;74.71
55315;BME280;41619;42.816;23.226;2022-09-09T05:18:46;95708.75;;;14.52;74.30
55315;BME280;41619;42.816;23.226;2022-09-09T05:21:13;95695.41;;;14.62;74.52
55315;BME280;41619;42.816;23.226;2022-09-09T05:23:39;95699.41;;;14.71;74.29
55315;BME280;41619;42.816;23.226;2022-09-09T05:26:07;95701.41;;;14.81;73.93
55315;BME280;41619;42.816;23.226;2022-09-09T05:28:34;95709.34;;;14.94;74.10
55315;BME280;41619;42.816;23.226;2022-09-09T05:31:03;95703.84;;;15.04;73.73
55315;BME280;41619;42.816;23.226;2022-09-09T05:33:30;95700.75;;;15.17;73.46
55315;BME280;41619;42.816;23.226;2022-09-09T05:35:58;95700.03;;;15.27;73.18
55315;BME280;41619;42.816;23.226;2022-09-09T05:38:24;95703.59;;;15.41;73.32
55315;BME280;41619;42.816;23.226;2022-09-09T05:40:50;95711.91;;;15.56;73.04
55315;BME280;41619;42.816;23.226;2022-09-09T05:43:17;95689.50;;;15.71;72.54
55315;BME280;41619;42.816;23.226;2022-09-09T05:45:43;95694.66;;;15.87;72.19
55315;BME280;41619;42.816;23.226;2022-09-09T05:48:09;95695.84;;;16.04;72.05
55315;BME280;41619;42.816;23.226;2022-09-09T05:50:34;95699.38;;;16.22;71.38
55315;BME280;41619;42.816;23.226;2022-09-09T05:52:59;95704.88;;;16.40;71.33
55315;BME280;41619;42.816;23.226;2022-09-09T05:55:25;95709.19;;;16.59;70.67
55315;BME280;41619;42.816;23.226;2022-09-09T05:57:50;95711.16;;;16.76;69.93
55315;BME280;41619;42.816;23.226;2022-09-09T06:00:17;95711.50;;;16.96;69.67
55315;BME280;41619;42.816;23.226;2022-09-09T06:02:42;95703.94;;;17.14;69.20
55315;BME280;41619;42.816;23.226;2022-09-09T06:05:08;95705.41;;;17.33;69.12
55315;BME280;41619;42.816;23.226;2022-09-09T06:07:36;95701.78;;;17.50;68.50
55315;BME280;41619;42.816;23.226;2022-09-09T06:10:01;95712.78;;;17.68;68.04
55315;BME280;41619;42.816;23.226;2022-09-09T06:12:26;95726.88;;;17.88;67.95
55315;BME280;41619;42.816;23.226;2022-09-09T06:14:52;95725.56;;;18.07;67.75
55315;BME280;41619;42.816;23.226;2022-09-09T06:17:17;95723.44;;;18.25;67.10
55315;BME280;41619;42.816;23.226;2022-09-09T06:19:42;95718.13;;;18.45;66.63
55315;BME280;41619;42.816;23.226;2022-09-09T06:22:08;95710.47;;;18.63;66.01
55315;BME280;41619;42.816;23.226;2022-09-09T06:24:37;95720.53;;;18.84;65.33
55315;BME280;41619;42.816;23.226;2022-09-09T06:27:03;95717.94;;;19.04;63.85
55315;BME280;41619;42.816;23.226;2022-09-09T06:29:28;95721.25;;;19.26;63.64
55315;BME280;41619;42.816;23.226;2022-09-09T06:31:54;95709.47;;;19.49;63.07
55315;BME280;41619;42.816;23.226;2022-09-09T06:34:19;95700.47;;;19.72;62.62
55315;BME280;41619;42.816;23.226;2022-09-09T06:36:45;95698.56;;;19.92;61.76
55315;BME280;41619;42.816;23.226;2022-09-09T06:39:11;95699.59;;;20.02;60.41
55315;BME280;41619;42.816;23.226;2022-09-09T06:41:36;95692.31;;;20.11;59.50
55315;BME280;41619;42.816;23.226;2022-09-09T06:44:03;95686.50;;;20.25;58.91
55315;BME280;41619;42.816;23.226;2022-09-09T06:46:30;95696.94;;;20.45;58.20
55315;BME280;41619;42.816;23.226;2022-09-09T06:48:58;95703.34;;;20.65;57.86
55315;BME280;41619;42.816;23.226;2022-09-09T06:51:30;95702.09;;;20.90;56.85
55315;BME280;41619;42.816;23.226;2022-09-09T06:53:58;95701.25;;;21.12;56.44
55315;BME280;41619;42.816;23.226;2022-09-09T06:58:51;95704.19;;;21.65;54.75
55315;BME280;41619;42.816;23.226;2022-09-09T07:01:30;95698.38;;;21.75;53.69
55315;BME280;41619;42.816;23.226;2022-09-09T07:03:56;95703.44;;;21.81;54.11
55315;BME280;41619;42.816;23.226;2022-09-09T07:06:29;95706.69;;;21.95;53.83
55315;BME280;41619;42.816;23.226;2022-09-09T07:08:59;95697.75;;;22.20;53.29
55315;BME280;41619;42.816;23.226;2022-09-09T07:11:28;95693.66;;;22.41;52.71
55315;BME280;41619;42.816;23.226;2022-09-09T07:13:54;95695.47;;;22.64;52.35
55315;BME280;41619;42.816;23.226;2022-09-09T07:16:21;95697.38;;;22.83;51.43
55315;BME280;41619;42.816;23.226;2022-09-09T07:18:51;95691.09;;;22.95;50.11
55315;BME280;41619;42.816;23.226;2022-09-09T07:21:18;95695.50;;;23.09;49.83
55315;BME280;41619;42.816;23.226;2022-09-09T07:23:44;95690.44;;;23.33;49.42
55315;BME280;41619;42.816;23.226;2022-09-09T07:26:11;95683.25;;;23.61;49.51
55315;BME280;41619;42.816;23.226;2022-09-09T07:28:37;95691.09;;;23.92;48.46
55315;BME280;41619;42.816;23.226;2022-09-09T07:31:03;95694.34;;;24.15;47.76
55315;BME280;41619;42.816;23.226;2022-09-09T07:33:31;95693.00;;;24.33;46.84
55315;BME280;41619;42.816;23.226;2022-09-09T07:36:06;95682.94;;;24.48;46.13
55315;BME280;41619;42.816;23.226;2022-09-09T07:38:37;95686.47;;;25.09;45.80
55315;BME280;41619;42.816;23.226;2022-09-09T07:41:05;95683.59;;;25.87;43.89
55315;BME280;41619;42.816;23.226;2022-09-09T07:43:32;95680.16;;;26.23;42.71
55315;BME280;41619;42.816;23.226;2022-09-09T07:45:58;95687.75;;;26.53;41.51
55315;BME280;41619;42.816;23.226;2022-09-09T07:48:25;95694.75;;;26.49;40.74
55315;BME280;41619;42.816;23.226;2022-09-09T07:50:50;95694.19;;;26.32;40.87
55315;BME280;41619;42.816;23.226;2022-09-09T07:53:16;95682.75;;;26.17;41.18
55315;BME280;41619;42.816;23.226;2022-09-09T07:55:41;95687.34;;;26.33;41.79
55315;BME280;41619;42.816;23.226;2022-09-09T07:58:07;95680.94;;;26.91;40.77
55315;BME280;41619;42.816;23.226;2022-09-09T08:00:33;95683.31;;;27.02;40.71
55315;BME280;41619;42.816;23.226;2022-09-09T08:02:58;95684.97;;;26.72;40.46
55315;BME280;41619;42.816;23.226;2022-09-09T08:05:26;95688.50;;;26.54;40.73
55315;BME280;41619;42.816;23.226;2022-09-09T08:07:51;95680.09;;;26.54;41.03
55315;BME280;41619;42.816;23.226;2022-09-09T08:10:16;95681.06;;;26.69;40.94
55315;BME280;41619;42.816;23.226;2022-09-09T08:12:43;95675.19;;;27.04;40.75
55315;BME280;41619;42.816;23.226;2022-09-09T08:15:08;95678.47;;;27.39;40.07
55315;BME280;41619;42.816;23.226;2022-09-09T08:17:33;95674.88;;;27.38;39.30
55315;BME280;41619;42.816;23.226;2022-09-09T08:19:59;95677.38;;;27.09;39.09
55315;BME280;41619;42.816;23.226;2022-09-09T08:22:28;95672.34;;;26.85;39.64
55315;BME280;41619;42.816;23.226;2022-09-09T08:24:54;95671.09;;;26.68;40.13
55315;BME280;41619;42.816;23.226;2022-09-09T08:27:19;95667.88;;;26.39;40.14
55315;BME280;41619;42.816;23.226;2022-09-09T08:29:45;95659.00;;;25.91;40.90
55315;BME280;41619;42.816;23.226;2022-09-09T08:32:10;95663.31;;;25.61;41.02
55315;BME280;41619;42.816;23.226;2022-09-09T08:34:35;95659.03;;;25.47;41.20
55315;BME280;41619;42.816;23.226;2022-09-09T08:37:01;95665.09;;;25.46;41.77
55315;BME280;41619;42.816;23.226;2022-09-09T08:39:26;95660.94;;;25.50;41.67
55315;BME280;41619;42.816;23.226;2022-09-09T08:42:16;95654.34;;;25.66;41.27
55315;BME280;41619;42.816;23.226;2022-09-09T08:47:54;95653.56;;;25.96;40.50
55315;BME280;41619;42.816;23.226;2022-09-09T08:50:28;95655.47;;;26.09;40.70
55315;BME280;41619;42.816;23.226;2022-09-09T08:55:32;95647.94;;;26.37;40.40
55315;BME280;41619;42.816;23.226;2022-09-09T08:58:28;95652.34;;;26.56;40.63
55315;BME280;41619;42.816;23.226;2022-09-09T09:01:09;95659.72;;;26.90;39.99
55315;BME280;41619;42.816;23.226;2022-09-09T09:04:00;95658.03;;;27.11;38.77
55315;BME280;41619;42.816;23.226;2022-09-09T09:06:35;95656.16;;;27.35;39.04
55315;BME280;41619;42.816;23.226;2022-09-09T09:09:35;95655.28;;;27.81;38.30
55315;BME280;41619;42.816;23.226;2022-09-09T09:12:10;95656.75;;;28.09;38.25
55315;BME280;41619;42.816;23.226;2022-09-09T09:14:40;95653.09;;;28.27;38.49
55315;BME280;41619;42.816;23.226;2022-09-09T09:17:11;95653.81;;;28.37;38.22
55315;BME280;41619;42.816;23.226;2022-09-09T09:19:39;95653.81;;;28.37;38.23
55315;BME280;41619;42.816;23.226;2022-09-09T09:22:18;95649.31;;;28.21;38.32
55315;BME280;41619;42.816;23.226;2022-09-09T09:27:38;95643.78;;;28.02;38.84
55315;BME280;41619;42.816;23.226;2022-09-09T09:30:19;95645.00;;;28.11;38.81
55315;BME280;41619;42.816;23.226;2022-09-09T09:33:12;95632.44;;;28.21;38.99
55315;BME280;41619;42.816;23.226;2022-09-09T09:35:40;95631.97;;;28.31;39.34
55315;BME280;41619;42.816;23.226;2022-09-09T09:38:17;95627.88;;;28.32;39.00
55315;BME280;41619;42.816;23.226;2022-09-09T09:43:28;95632.34;;;27.73;39.34
55315;BME280;41619;42.816;23.226;2022-09-09T09:45:55;95625.22;;;27.35;40.15
55315;BME280;41619;42.816;23.226;2022-09-09T09:48:23;95635.41;;;26.96;40.82
55315;BME280;41619;42.816;23.226;2022-09-09T09:53:23;95628.47;;;26.02;41.24
55315;BME280;41619;42.816;23.226;2022-09-09T09:58:27;95637.16;;;25.64;41.91
55315;BME280;41619;42.816;23.226;2022-09-09T10:00:57;95630.75;;;25.54;42.71
55315;BME280;41619;42.816;23.226;2022-09-09T10:03:29;95633.94;;;25.44;42.95
55315;BME280;41619;42.816;23.226;2022-09-09T10:05:55;95635.47;;;25.35;43.31
55315;BME280;41619;42.816;23.226;2022-09-09T10:08:24;95637.41;;;25.26;43.52
55315;BME280;41619;42.816;23.226;2022-09-09T10:11:07;95645.78;;;25.17;43.85
55315;BME280;41619;42.816;23.226;2022-09-09T10:19:04;95640.13;;;24.73;44.95
55315;BME280;41619;42.816;23.226;2022-09-09T10:26:59;95648.25;;;24.45;45.94
55315;BME280;41619;42.816;23.226;2022-09-09T10:35:04;95655.88;;;24.32;46.75
55315;BME280;41619;42.816;23.226;2022-09-09T10:38:03;95651.97;;;24.30;46.78
55315;BME280;41619;42.816;23.226;2022-09-09T10:45:54;95657.78;;;24.23;47.16
55315;BME280;41619;42.816;23.226;2022-09-09T10:48:35;95662.59;;;24.22;47.43
55315;BME280;41619;42.816;23.226;2022-09-09T10:53:55;95652.31;;;24.19;47.72
55315;BME280;41619;42.816;23.226;2022-09-09T10:56:26;95653.88;;;24.20;47.59
55315;BME280;41619;42.816;23.226;2022-09-09T10:59:02;95653.88;;;24.20;48.28
55315;BME280;41619;42.816;23.226;2022-09-09T11:01:36;95653.28;;;24.25;48.31
55315;BME280;41619;42.816;23.226;2022-09-09T11:06:41;95645.13;;;24.43;48.17
55315;BME280;41619;42.816;23.226;2022-09-09T11:09:16;95648.78;;;24.53;48.46
55315;BME280;41619;42.816;23.226;2022-09-09T11:11:56;95635.47;;;24.57;48.21
55315;BME280;41619;42.816;23.226;2022-09-09T11:17:26;95630.66;;;24.58;48.13
55315;BME280;41619;42.816;23.226;2022-09-09T11:19:55;95624.59;;;24.59;48.40
55315;BME280;41619;42.816;23.226;2022-09-09T11:22:34;95627.59;;;24.65;47.99
55315;BME280;41619;42.816;23.226;2022-09-09T11:30:22;95608.09;;;24.96;47.91
55315;BME280;41619;42.816;23.226;2022-09-09T11:40:56;95578.28;;;25.24;47.55
55315;BME280;41619;42.816;23.226;2022-09-09T11:43:28;95575.16;;;25.22;47.76
55315;BME280;41619;42.816;23.226;2022-09-09T11:45:57;95566.75;;;25.22;48.11
55315;BME280;41619;42.816;23.226;2022-09-09T11:48:37;95562.25;;;25.24;48.16
55315;BME280;41619;42.816;23.226;2022-09-09T11:51:06;95564.34;;;25.33;48.62
55315;BME280;41619;42.816;23.226;2022-09-09T11:53:47;95554.72;;;25.43;48.80
55315;BME280;41619;42.816;23.226;2022-09-09T11:56:24;95556.59;;;25.68;48.70
55315;BME280;41619;42.816;23.226;2022-09-09T12:01:33;95550.16;;;26.08;47.91
55315;BME280;41619;42.816;23.226;2022-09-09T12:07:02;95542.56;;;26.36;48.01
55315;BME280;41619;42.816;23.226;2022-09-09T12:09:50;95539.75;;;26.54;47.77
55315;BME280;41619;42.816;23.226;2022-09-09T12:12:32;95538.84;;;26.66;47.79
55315;BME280;41619;42.816;23.226;2022-09-09T12:17:47;95537.09;;;26.96;47.52
55315;BME280;41619;42.816;23.226;2022-09-09T12:28:51;95528.56;;;27.84;46.16
55315;BME280;41619;42.816;23.226;2022-09-09T12:31:26;95524.56;;;28.00;45.43
55315;BME280;41619;42.816;23.226;2022-09-09T12:34:06;95516.97;;;28.15;45.53
55315;BME280;41619;42.816;23.226;2022-09-09T12:36:34;95505.81;;;28.21;45.39
55315;BME280;41619;42.816;23.226;2022-09-09T12:39:33;95508.22;;;28.13;44.85
55315;BME280;41619;42.816;23.226;2022-09-09T12:41:55;95507.19;;;28.01;45.73
55315;BME280;41619;42.816;23.226;2022-09-09T12:44:24;95515.41;;;27.90;45.63
55315;BME280;41619;42.816;23.226;2022-09-09T12:46:51;95510.41;;;27.85;45.86
55315;BME280;41619;42.816;23.226;2022-09-09T12:49:33;95512.94;;;27.83;45.46
55315;BME280;41619;42.816;23.226;2022-09-09T12:52:04;95503.25;;;27.84;45.75
55315;BME280;41619;42.816;23.226;2022-09-09T12:54:33;95506.72;;;27.79;45.71
55315;BME280;41619;42.816;23.226;2022-09-09T12:56:59;95503.50;;;27.71;45.58
55315;BME280;41619;42.816;23.226;2022-09-09T12:59:34;95493.34;;;27.65;45.68
55315;BME280;41619;42.816;23.226;2022-09-09T13:02:00;95492.59;;;27.55;45.70
55315;BME280;41619;42.816;23.226;2022-09-09T13:04:26;95500.09;;;27.49;45.51
55315;BME280;41619;42.816;23.226;2022-09-09T13:06:51;95497.47;;;27.45;45.77
55315;BME280;41619;42.816;23.226;2022-09-09T13:09:36;95497.66;;;27.42;45.44
55315;BME280;41619;42.816;23.226;2022-09-09T13:12:02;95488.13;;;27.39;45.70
55315;BME280;41619;42.816;23.226;2022-09-09T13:14:33;95495.31;;;27.40;46.22
55315;BME280;41619;42.816;23.226;2022-09-09T13:17:04;95485.19;;;27.34;46.00
55315;BME280;41619;42.816;23.226;2022-09-09T13:19:34;95478.81;;;27.33;45.68
55315;BME280;41619;42.816;23.226;2022-09-09T13:22:14;95480.22;;;27.29;45.21
55315;BME280;41619;42.816;23.226;2022-09-09T13:24:44;95472.91;;;27.22;45.40
55315;BME280;41619;42.816;23.226;2022-09-09T13:27:31;95466.38;;;27.16;45.34
55315;BME280;41619;42.816;23.226;2022-09-09T13:29:58;95472.97;;;27.04;45.58
55315;BME280;41619;42.816;23.226;2022-09-09T13:32:30;95469.53;;;26.91;45.11
55315;BME280;41619;42.816;23.226;2022-09-09T13:34:58;95459.91;;;26.73;45.11
55315;BME280;41619;42.816;23.226;2022-09-09T13:37:36;95449.81;;;26.48;45.23
55315;BME280;41619;42.816;23.226;2022-09-09T13:40:03;95452.44;;;26.34;45.67
55315;BME280;41619;42.816;23.226;2022-09-09T13:42:33;95444.97;;;26.21;45.65
55315;BME280;41619;42.816;23.226;2022-09-09T13:45:00;95457.91;;;26.10;45.79
55315;BME280;41619;42.816;23.226;2022-09-09T13:47:34;95459.31;;;26.05;46.19
55315;BME280;41619;42.816;23.226;2022-09-09T13:50:19;95459.13;;;26.00;46.46
55315;BME280;41619;42.816;23.226;2022-09-09T13:52:52;95449.63;;;25.97;46.50
55315;BME280;41619;42.816;23.226;2022-09-09T13:55:20;95458.34;;;25.90;46.28
55315;BME280;41619;42.816;23.226;2022-09-09T13:58:04;95453.38;;;25.85;46.32
55315;BME280;41619;42.816;23.226;2022-09-09T14:00:33;95451.16;;;25.80;46.27
55315;BME280;41619;42.816;23.226;2022-09-09T14:02:59;95448.06;;;25.78;46.33
55315;BME280;41619;42.816;23.226;2022-09-09T14:05:27;95447.28;;;25.77;46.33
55315;BME280;41619;42.816;23.226;2022-09-09T14:07:53;95450.09;;;25.77;46.66
55315;BME280;41619;42.816;23.226;2022-09-09T14:10:19;95449.94;;;25.81;46.49
55315;BME280;41619;42.816;23.226;2022-09-09T14:12:44;95447.44;;;25.83;46.82
55315;BME280;41619;42.816;23.226;2022-09-09T14:15:11;95453.03;;;25.83;46.67
55315;BME280;41619;42.816;23.226;2022-09-09T14:17:37;95444.16;;;25.84;47.04
55315;BME280;41619;42.816;23.226;2022-09-09T14:20:03;95446.97;;;25.84;47.06
55315;BME280;41619;42.816;23.226;2022-09-09T14:22:35;95439.19;;;25.79;47.61
55315;BME280;41619;42.816;23.226;2022-09-09T14:25:01;95430.16;;;25.75;47.83
55315;BME280;41619;42.816;23.226;2022-09-09T14:27:26;95428.44;;;25.69;47.77
55315;BME280;41619;42.816;23.226;2022-09-09T14:29:52;95438.53;;;25.66;47.95
55315;BME280;41619;42.816;23.226;2022-09-09T14:32:18;95436.94;;;25.65;48.10
55315;BME280;41619;42.816;23.226;2022-09-09T14:34:43;95443.31;;;25.65;48.17
55315;BME280;41619;42.816;23.226;2022-09-09T14:37:09;95444.47;;;25.68;48.27
55315;BME280;41619;42.816;23.226;2022-09-09T14:39:34;95446.34;;;25.71;48.08
55315;BME280;41619;42.816;23.226;2022-09-09T14:41:59;95433.56;;;25.70;48.05
55315;BME280;41619;42.816;23.226;2022-09-09T14:44:25;95437.28;;;25.67;47.78
55315;BME280;41619;42.816;23.226;2022-09-09T14:46:51;95441.13;;;25.60;47.71
55315;BME280;41619;42.816;23.226;2022-09-09T14:49:16;95444.56;;;25.55;47.82
55315;BME280;41619;42.816;23.226;2022-09-09T14:51:41;95436.47;;;25.48;47.61
55315;BME280;41619;42.816;23.226;2022-09-09T14:54:07;95445.13;;;25.41;47.74
55315;BME280;41619;42.816;23.226;2022-09-09T14:56:32;95442.03;;;25.39;48.25
55315;BME280;41619;42.816;23.226;2022-09-09T14:59:01;95438.91;;;25.37;48.17
55315;BME280;41619;42.816;23.226;2022-09-09T15:01:28;95437.03;;;25.34;48.25
55315;BME280;41619;42.816;23.226;2022-09-09T15:04:04;95442.78;;;25.30;48.55
55315;BME280;41619;42.816;23.226;2022-09-09T15:06:32;95452.69;;;25.22;48.72
55315;BME280;41619;42.816;23.226;2022-09-09T15:08:59;95453.47;;;25.14;48.83
55315;BME280;41619;42.816;23.226;2022-09-09T15:11:30;95447.50;;;25.02;49.36